sensor_id;sensor_type;location;lat;lon;timestamp;temperature;humidity
7461;DHT22;6757;52.258;12.840;2022-09-20T00:01:26;8.70;99.90
7461;DHT22;6757;52.258;12.840;2022-09-20T00:03:55;8.70;99.90
7461;DHT22;6757;52.258;12.840;2022-09-20T00:06:24;8.70;99.90
7461;DHT22;6757;52.258;12.840;2022-09-20T00:08:52;8.70;99.90
7461;DHT22;6757;52.258;12.840;2022-09-20T00:11:22;8.60;99.90
7461;DHT22;6757;52.258;12.840;2022-09-20T00:13:54;8.60;99.90
7461;DHT22;6757;52.258;12.840;2022-09-20T00:16:24;8.70;99.90
7461;DHT22;6757;52.258;12.840;2022-09-20T00:18:54;8.60;99.90
7461;DHT22;6757;52.258;12.840;2022-09-20T00:21:24;8.60;99.90
7461;DHT22;6757;52.258;12.840;2022-09-20T00:23:53;8.60;99.90
7461;DHT22;6757;52.258;12.840;2022-09-20T00:26:21;8.60;99.90
7461;DHT22;6757;52.258;12.840;2022-09-20T00:28:48;8.70;99.90
7461;DHT22;6757;52.258;12.840;2022-09-20T00:31:18;8.60;99.90
7461;DHT22;6757;52.258;12.840;2022-09-20T00:33:46;8.60;99.90
7461;DHT22;6757;52.258;12.840;2022-09-20T00:36:30;8.70;99.90
7461;DHT22;6757;52.258;12.840;2022-09-20T00:38:58;8.70;99.90
7461;DHT22;6757;52.258;12.840;2022-09-20T00:41:28;8.70;99.90
7461;DHT22;6757;52.258;12.840;2022-09-20T00:43:58;8.70;99.90
7461;DHT22;6757;52.258;12.840;2022-09-20T00:46:31;8.70;99.90
7461;DHT22;6757;52.258;12.840;2022-09-20T00:49:04;8.70;99.90
7461;DHT22;6757;52.258;12.840;2022-09-20T00:51:34;8.70;99.90
7461;DHT22;6757;52.258;12.840;2022-09-20T00:54:06;8.70;99.90
7461;DHT22;6757;52.258;12.840;2022-09-20T00:56:37;8.80;99.90
7461;DHT22;6757;52.258;12.840;2022-09-20T00:59:13;8.80;99.90
7461;DHT22;6757;52.258;12.840;2022-09-20T01:01:45;8.80;99.90
7461;DHT22;6757;52.258;12.840;2022-09-20T01:04:15;8.80;99.90
7461;DHT22;6757;52.258;12.840;2022-09-20T01:06:43;8.80;99.90
7461;DHT22;6757;52.258;12.840;2022-09-20T01:09:11;8.80;99.90
7461;DHT22;6757;52.258;12.840;2022-09-20T01:11:38;8.80;99.90
7461;DHT22;6757;52.258;12.840;2022-09-20T01:14:06;8.80;99.90
7461;DHT22;6757;52.258;12.840;2022-09-20T01:16:34;8.90;99.90
7461;DHT22;6757;52.258;12.840;2022-09-20T01:19:11;8.80;99.90
7461;DHT22;6757;52.258;12.840;2022-09-20T01:21:43;8.80;99.90
7461;DHT22;6757;52.258;12.840;2022-09-20T01:24:17;8.80;99.90
7461;DHT22;6757;52.258;12.840;2022-09-20T01:27:13;8.80;99.90
7461;DHT22;6757;52.258;12.840;2022-09-20T01:30:00;8.80;99.90
7461;DHT22;6757;52.258;12.840;2022-09-20T01:32:40;8.80;99.90
7461;DHT22;6757;52.258;12.840;2022-09-20T01:35:11;8.80;99.90
7461;DHT22;6757;52.258;12.840;2022-09-20T01:38:02;8.80;99.90
7461;DHT22;6757;52.258;12.840;2022-09-20T01:40:38;8.80;99.90
7461;DHT22;6757;52.258;12.840;2022-09-20T01:43:17;8.80;99.90
7461;DHT22;6757;52.258;12.840;2022-09-20T01:45:49;8.80;99.90
7461;DHT22;6757;52.258;12.840;2022-09-20T01:48:24;8.80;99.90
7461;DHT22;6757;52.258;12.840;2022-09-20T01:51:18;8.80;99.90
7461;DHT22;6757;52.258;12.840;2022-09-20T01:54:38;8.70;99.90
7461;DHT22;6757;52.258;12.840;2022-09-20T01:57:33;8.70;99.90
7461;DHT22;6757;52.258;12.840;2022-09-20T02:00:13;8.70;99.90
7461;DHT22;6757;52.258;12.840;2022-09-20T02:12:26;8.70;99.90
7461;DHT22;6757;52.258;12.840;2022-09-20T02:15:33;8.70;99.90
7461;DHT22;6757;52.258;12.840;2022-09-20T02:18:20;8.70;99.90
7461;DHT22;6757;52.258;12.840;2022-09-20T02:21:02;8.80;99.90
7461;DHT22;6757;52.258;12.840;2022-09-20T02:23:39;8.80;99.90
7461;DHT22;6757;52.258;12.840;2022-09-20T02:26:28;8.80;99.90
7461;DHT22;6757;52.258;12.840;2022-09-20T02:29:08;8.80;99.90
7461;DHT22;6757;52.258;12.840;2022-09-20T02:31:55;8.80;99.90
7461;DHT22;6757;52.258;12.840;2022-09-20T02:35:00;8.80;99.90
7461;DHT22;6757;52.258;12.840;2022-09-20T02:37:49;8.80;99.90
7461;DHT22;6757;52.258;12.840;2022-09-20T02:40:33;8.90;99.90
7461;DHT22;6757;52.258;12.840;2022-09-20T02:43:25;8.90;99.90
7461;DHT22;6757;52.258;12.840;2022-09-20T02:46:02;8.90;99.90
7461;DHT22;6757;52.258;12.840;2022-09-20T02:48:38;8.90;99.90
7461;DHT22;6757;52.258;12.840;2022-09-20T02:51:17;9.00;99.90
7461;DHT22;6757;52.258;12.840;2022-09-20T02:53:54;9.00;99.90
7461;DHT22;6757;52.258;12.840;2022-09-20T02:56:32;9.00;99.90
7461;DHT22;6757;52.258;12.840;2022-09-20T02:59:06;9.00;99.90
7461;DHT22;6757;52.258;12.840;2022-09-20T03:01:44;9.00;99.90
7461;DHT22;6757;52.258;12.840;2022-09-20T03:04:22;9.00;99.90
7461;DHT22;6757;52.258;12.840;2022-09-20T03:07:01;9.00;99.90
7461;DHT22;6757;52.258;12.840;2022-09-20T03:09:37;9.00;99.90
7461;DHT22;6757;52.258;12.840;2022-09-20T03:12:16;9.00;99.90
7461;DHT22;6757;52.258;12.840;2022-09-20T03:14:51;9.00;99.90
7461;DHT22;6757;52.258;12.840;2022-09-20T03:17:32;9.80;99.90
7461;DHT22;6757;52.258;12.840;2022-09-20T03:20:14;9.00;99.90
7461;DHT22;6757;52.258;12.840;2022-09-20T03:22:56;9.00;99.90
7461;DHT22;6757;52.258;12.840;2022-09-20T03:25:35;9.00;99.90
7461;DHT22;6757;52.258;12.840;2022-09-20T03:28:14;9.00;99.90
7461;DHT22;6757;52.258;12.840;2022-09-20T03:30:55;9.00;99.90
7461;DHT22;6757;52.258;12.840;2022-09-20T03:33:37;9.00;99.90
7461;DHT22;6757;52.258;12.840;2022-09-20T03:36:17;9.00;99.90
7461;DHT22;6757;52.258;12.840;2022-09-20T03:39:21;9.00;99.90
7461;DHT22;6757;52.258;12.840;2022-09-20T03:42:07;9.00;99.90
7461;DHT22;6757;52.258;12.840;2022-09-20T03:48:11;10.10;99.90
7461;DHT22;6757;52.258;12.840;2022-09-20T03:50:53;9.00;99.90
7461;DHT22;6757;52.258;12.840;2022-09-20T03:53:53;9.00;99.90
7461;DHT22;6757;52.258;12.840;2022-09-20T03:56:58;9.00;99.90
7461;DHT22;6757;52.258;12.840;2022-09-20T03:59:51;9.00;99.90
7461;DHT22;6757;52.258;12.840;2022-09-20T04:02:58;9.00;99.90
7461;DHT22;6757;52.258;12.840;2022-09-20T04:05:35;9.00;99.90
7461;DHT22;6757;52.258;12.840;2022-09-20T04:08:16;9.00;99.90
7461;DHT22;6757;52.258;12.840;2022-09-20T04:11:02;9.10;99.90
7461;DHT22;6757;52.258;12.840;2022-09-20T04:13:37;9.10;99.90
7461;DHT22;6757;52.258;12.840;2022-09-20T04:16:22;9.10;99.90
7461;DHT22;6757;52.258;12.840;2022-09-20T04:18:58;9.10;99.90
7461;DHT22;6757;52.258;12.840;2022-09-20T04:21:33;9.20;99.90
7461;DHT22;6757;52.258;12.840;2022-09-20T04:24:09;9.20;99.90
7461;DHT22;6757;52.258;12.840;2022-09-20T04:26:43;9.20;99.90
7461;DHT22;6757;52.258;12.840;2022-09-20T04:29:30;9.20;99.90
7461;DHT22;6757;52.258;12.840;2022-09-20T04:32:08;9.20;99.90
7461;DHT22;6757;52.258;12.840;2022-09-20T04:34:44;9.20;99.90
7461;DHT22;6757;52.258;12.840;2022-09-20T04:37:32;9.20;99.90
7461;DHT22;6757;52.258;12.840;2022-09-20T04:40:12;9.20;99.90
7461;DHT22;6757;52.258;12.840;2022-09-20T04:46:28;10.30;99.90
7461;DHT22;6757;52.258;12.840;2022-09-20T04:49:23;9.20;99.90
7461;DHT22;6757;52.258;12.840;2022-09-20T04:52:20;9.20;99.90
7461;DHT22;6757;52.258;12.840;2022-09-20T04:55:43;9.20;99.90
7461;DHT22;6757;52.258;12.840;2022-09-20T05:08:22;9.10;99.90
7461;DHT22;6757;52.258;12.840;2022-09-20T05:11:38;9.10;99.90
7461;DHT22;6757;52.258;12.840;2022-09-20T05:17:41;9.10;99.90
7461;DHT22;6757;52.258;12.840;2022-09-20T05:20:29;9.10;99.90
7461;DHT22;6757;52.258;12.840;2022-09-20T05:26:36;9.00;99.90
7461;DHT22;6757;52.258;12.840;2022-09-20T05:29:17;9.00;99.90
7461;DHT22;6757;52.258;12.840;2022-09-20T05:31:53;9.10;99.90
7461;DHT22;6757;52.258;12.840;2022-09-20T05:34:33;9.00;99.90
7461;DHT22;6757;52.258;12.840;2022-09-20T05:37:15;9.00;99.90
7461;DHT22;6757;52.258;12.840;2022-09-20T05:39:52;9.00;99.90
7461;DHT22;6757;52.258;12.840;2022-09-20T05:42:34;9.00;99.90
7461;DHT22;6757;52.258;12.840;2022-09-20T05:45:18;9.00;99.90
7461;DHT22;6757;52.258;12.840;2022-09-20T05:47:58;9.00;99.90
7461;DHT22;6757;52.258;12.840;2022-09-20T05:50:38;9.00;99.90
7461;DHT22;6757;52.258;12.840;2022-09-20T05:56:40;9.00;99.90
7461;DHT22;6757;52.258;12.840;2022-09-20T05:59:35;9.00;99.90
7461;DHT22;6757;52.258;12.840;2022-09-20T06:02:20;9.00;99.90
7461;DHT22;6757;52.258;12.840;2022-09-20T06:04:59;9.00;99.90
7461;DHT22;6757;52.258;12.840;2022-09-20T06:07:41;9.00;99.90
7461;DHT22;6757;52.258;12.840;2022-09-20T06:10:32;9.00;99.90
7461;DHT22;6757;52.258;12.840;2022-09-20T06:13:14;9.00;99.90
7461;DHT22;6757;52.258;12.840;2022-09-20T06:15:55;9.10;99.90
7461;DHT22;6757;52.258;12.840;2022-09-20T06:18:26;9.10;99.90
7461;DHT22;6757;52.258;12.840;2022-09-20T06:21:04;9.10;99.90
7461;DHT22;6757;52.258;12.840;2022-09-20T06:23:36;9.10;99.90
7461;DHT22;6757;52.258;12.840;2022-09-20T06:26:06;9.10;99.90
7461;DHT22;6757;52.258;12.840;2022-09-20T06:28:39;9.10;99.90
7461;DHT22;6757;52.258;12.840;2022-09-20T06:31:07;9.10;99.90
7461;DHT22;6757;52.258;12.840;2022-09-20T06:33:41;9.10;99.90
7461;DHT22;6757;52.258;12.840;2022-09-20T06:36:14;9.10;99.90
7461;DHT22;6757;52.258;12.840;2022-09-20T06:39:10;9.10;99.90
7461;DHT22;6757;52.258;12.840;2022-09-20T06:42:07;9.20;99.90
7461;DHT22;6757;52.258;12.840;2022-09-20T06:44:35;10.60;99.90
7461;DHT22;6757;52.258;12.840;2022-09-20T06:47:04;9.20;99.90
7461;DHT22;6757;52.258;12.840;2022-09-20T06:49:33;9.30;99.90
7461;DHT22;6757;52.258;12.840;2022-09-20T06:52:03;9.30;99.90
7461;DHT22;6757;52.258;12.840;2022-09-20T06:54:30;9.30;99.90
7461;DHT22;6757;52.258;12.840;2022-09-20T06:56:59;9.40;99.90
7461;DHT22;6757;52.258;12.840;2022-09-20T06:59:27;9.40;99.90
7461;DHT22;6757;52.258;12.840;2022-09-20T07:01:54;9.40;99.90
7461;DHT22;6757;52.258;12.840;2022-09-20T07:04:22;9.40;99.90
7461;DHT22;6757;52.258;12.840;2022-09-20T07:06:51;9.50;99.90
7461;DHT22;6757;52.258;12.840;2022-09-20T07:09:20;9.60;99.90
7461;DHT22;6757;52.258;12.840;2022-09-20T07:11:47;9.60;99.90
7461;DHT22;6757;52.258;12.840;2022-09-20T07:14:14;11.10;99.90
7461;DHT22;6757;52.258;12.840;2022-09-20T07:16:41;9.70;99.90
7461;DHT22;6757;52.258;12.840;2022-09-20T07:19:08;9.80;99.90
7461;DHT22;6757;52.258;12.840;2022-09-20T07:21:34;9.80;99.90
7461;DHT22;6757;52.258;12.840;2022-09-20T07:24:01;9.90;99.90
7461;DHT22;6757;52.258;12.840;2022-09-20T07:26:30;10.00;99.90
7461;DHT22;6757;52.258;12.840;2022-09-20T07:28:58;10.10;99.90
7461;DHT22;6757;52.258;12.840;2022-09-20T07:31:27;10.10;99.90
7461;DHT22;6757;52.258;12.840;2022-09-20T07:33:55;10.20;99.90
7461;DHT22;6757;52.258;12.840;2022-09-20T07:36:22;10.20;99.90
7461;DHT22;6757;52.258;12.840;2022-09-20T07:38:50;10.20;99.90
7461;DHT22;6757;52.258;12.840;2022-09-20T07:41:18;10.30;99.90
7461;DHT22;6757;52.258;12.840;2022-09-20T07:43:48;10.30;99.90
7461;DHT22;6757;52.258;12.840;2022-09-20T07:46:16;10.30;99.90
7461;DHT22;6757;52.258;12.840;2022-09-20T07:48:44;10.40;99.90
7461;DHT22;6757;52.258;12.840;2022-09-20T07:51:12;10.40;99.90
7461;DHT22;6757;52.258;12.840;2022-09-20T07:53:40;10.50;99.90
7461;DHT22;6757;52.258;12.840;2022-09-20T07:56:10;10.50;99.90
7461;DHT22;6757;52.258;12.840;2022-09-20T07:58:38;10.50;99.90
7461;DHT22;6757;52.258;12.840;2022-09-20T08:01:09;10.50;99.90
7461;DHT22;6757;52.258;12.840;2022-09-20T08:03:39;10.60;99.90
7461;DHT22;6757;52.258;12.840;2022-09-20T08:06:08;10.60;99.90
7461;DHT22;6757;52.258;12.840;2022-09-20T08:08:39;10.60;99.90
7461;DHT22;6757;52.258;12.840;2022-09-20T08:11:07;10.70;99.90
7461;DHT22;6757;52.258;12.840;2022-09-20T08:13:35;10.70;99.90
7461;DHT22;6757;52.258;12.840;2022-09-20T08:16:03;10.80;99.90
7461;DHT22;6757;52.258;12.840;2022-09-20T08:18:32;10.80;99.90
7461;DHT22;6757;52.258;12.840;2022-09-20T08:21:02;10.90;99.90
7461;DHT22;6757;52.258;12.840;2022-09-20T08:23:33;10.90;99.90
7461;DHT22;6757;52.258;12.840;2022-09-20T08:26:00;11.00;99.90
7461;DHT22;6757;52.258;12.840;2022-09-20T08:28:27;11.00;99.90
7461;DHT22;6757;52.258;12.840;2022-09-20T08:31:00;11.10;99.90
7461;DHT22;6757;52.258;12.840;2022-09-20T08:33:28;11.10;99.90
7461;DHT22;6757;52.258;12.840;2022-09-20T08:35:56;11.20;99.90
7461;DHT22;6757;52.258;12.840;2022-09-20T08:38:23;11.30;99.90
7461;DHT22;6757;52.258;12.840;2022-09-20T08:40:53;11.30;99.90
7461;DHT22;6757;52.258;12.840;2022-09-20T08:43:26;11.30;99.90
7461;DHT22;6757;52.258;12.840;2022-09-20T08:45:55;11.30;99.90
7461;DHT22;6757;52.258;12.840;2022-09-20T08:48:27;11.40;99.90
7461;DHT22;6757;52.258;12.840;2022-09-20T08:50:58;11.40;99.90
7461;DHT22;6757;52.258;12.840;2022-09-20T08:53:26;11.50;99.90
7461;DHT22;6757;52.258;12.840;2022-09-20T08:55:53;11.50;99.90
7461;DHT22;6757;52.258;12.840;2022-09-20T08:58:22;11.60;99.90
7461;DHT22;6757;52.258;12.840;2022-09-20T09:00:50;11.60;99.90
7461;DHT22;6757;52.258;12.840;2022-09-20T09:03:17;11.60;99.90
7461;DHT22;6757;52.258;12.840;2022-09-20T09:05:46;11.60;99.90
7461;DHT22;6757;52.258;12.840;2022-09-20T09:08:17;11.70;99.90
7461;DHT22;6757;52.258;12.840;2022-09-20T09:10:46;11.60;99.90
7461;DHT22;6757;52.258;12.840;2022-09-20T09:13:23;11.70;99.90
7461;DHT22;6757;52.258;12.840;2022-09-20T09:15:54;11.70;99.90
7461;DHT22;6757;52.258;12.840;2022-09-20T09:18:32;11.70;99.90
7461;DHT22;6757;52.258;12.840;2022-09-20T09:21:01;11.80;99.90
7461;DHT22;6757;52.258;12.840;2022-09-20T09:23:38;11.90;99.90
7461;DHT22;6757;52.258;12.840;2022-09-20T09:26:14;12.00;99.90
7461;DHT22;6757;52.258;12.840;2022-09-20T09:28:43;12.00;99.90
7461;DHT22;6757;52.258;12.840;2022-09-20T09:31:21;12.00;99.90
7461;DHT22;6757;52.258;12.840;2022-09-20T09:33:50;12.00;99.90
7461;DHT22;6757;52.258;12.840;2022-09-20T09:36:21;12.00;99.90
7461;DHT22;6757;52.258;12.840;2022-09-20T09:39:14;12.00;99.90
7461;DHT22;6757;52.258;12.840;2022-09-20T09:41:42;12.00;99.90
7461;DHT22;6757;52.258;12.840;2022-09-20T09:44:20;12.00;99.90
7461;DHT22;6757;52.258;12.840;2022-09-20T09:46:48;11.90;99.90
7461;DHT22;6757;52.258;12.840;2022-09-20T09:49:19;11.80;99.90
7461;DHT22;6757;52.258;12.840;2022-09-20T09:52:00;11.70;99.90
7461;DHT22;6757;52.258;12.840;2022-09-20T09:54:33;11.70;99.90
7461;DHT22;6757;52.258;12.840;2022-09-20T09:57:12;11.70;99.90
7461;DHT22;6757;52.258;12.840;2022-09-20T09:59:57;11.60;99.90
7461;DHT22;6757;52.258;12.840;2022-09-20T10:03:04;11.60;99.90
7461;DHT22;6757;52.258;12.840;2022-09-20T10:05:45;11.70;99.90
7461;DHT22;6757;52.258;12.840;2022-09-20T10:08:26;11.70;99.90
7461;DHT22;6757;52.258;12.840;2022-09-20T10:11:07;11.70;99.90
7461;DHT22;6757;52.258;12.840;2022-09-20T10:13:46;11.80;99.90
7461;DHT22;6757;52.258;12.840;2022-09-20T10:16:22;11.90;99.90
7461;DHT22;6757;52.258;12.840;2022-09-20T10:18:59;11.90;99.90
7461;DHT22;6757;52.258;12.840;2022-09-20T10:21:39;12.10;99.90
7461;DHT22;6757;52.258;12.840;2022-09-20T10:24:19;12.00;99.90
7461;DHT22;6757;52.258;12.840;2022-09-20T10:27:27;12.10;99.90
7461;DHT22;6757;52.258;12.840;2022-09-20T10:30:07;12.20;99.90
7461;DHT22;6757;52.258;12.840;2022-09-20T10:32:50;12.30;99.90
7461;DHT22;6757;52.258;12.840;2022-09-20T10:35:31;12.40;99.90
7461;DHT22;6757;52.258;12.840;2022-09-20T10:38:12;12.60;99.90
7461;DHT22;6757;52.258;12.840;2022-09-20T10:40:53;12.60;99.90
7461;DHT22;6757;52.258;12.840;2022-09-20T10:44:01;12.70;99.90
7461;DHT22;6757;52.258;12.840;2022-09-20T10:46:40;12.80;99.90
7461;DHT22;6757;52.258;12.840;2022-09-20T10:49:20;12.80;99.90
7461;DHT22;6757;52.258;12.840;2022-09-20T10:55:02;12.90;99.90
7461;DHT22;6757;52.258;12.840;2022-09-20T10:58:01;12.90;99.90
7461;DHT22;6757;52.258;12.840;2022-09-20T11:00:46;12.90;99.90
7461;DHT22;6757;52.258;12.840;2022-09-20T11:03:27;13.00;99.90
7461;DHT22;6757;52.258;12.840;2022-09-20T11:06:08;13.00;99.90
7461;DHT22;6757;52.258;12.840;2022-09-20T11:08:42;13.00;99.90
7461;DHT22;6757;52.258;12.840;2022-09-20T11:11:12;13.00;99.90
7461;DHT22;6757;52.258;12.840;2022-09-20T11:13:44;13.10;99.90
7461;DHT22;6757;52.258;12.840;2022-09-20T11:16:17;13.20;99.90
7461;DHT22;6757;52.258;12.840;2022-09-20T11:18:52;13.30;99.90
7461;DHT22;6757;52.258;12.840;2022-09-20T11:21:25;13.50;99.90
7461;DHT22;6757;52.258;12.840;2022-09-20T11:23:59;13.60;99.90
7461;DHT22;6757;52.258;12.840;2022-09-20T11:26:30;13.60;99.90
7461;DHT22;6757;52.258;12.840;2022-09-20T11:29:07;13.60;99.90
7461;DHT22;6757;52.258;12.840;2022-09-20T11:31:43;13.50;99.90
7461;DHT22;6757;52.258;12.840;2022-09-20T11:34:17;13.50;99.90
7461;DHT22;6757;52.258;12.840;2022-09-20T11:36:52;13.50;99.90
7461;DHT22;6757;52.258;12.840;2022-09-20T11:39:26;13.50;99.90
7461;DHT22;6757;52.258;12.840;2022-09-20T11:41:57;13.50;99.90
7461;DHT22;6757;52.258;12.840;2022-09-20T11:44:25;13.50;99.90
7461;DHT22;6757;52.258;12.840;2022-09-20T11:46:57;13.60;99.90
7461;DHT22;6757;52.258;12.840;2022-09-20T11:49:29;13.60;99.90
7461;DHT22;6757;52.258;12.840;2022-09-20T11:52:18;13.60;99.90
7461;DHT22;6757;52.258;12.840;2022-09-20T11:55:16;13.80;99.90
7461;DHT22;6757;52.258;12.840;2022-09-20T11:58:01;13.80;99.90
7461;DHT22;6757;52.258;12.840;2022-09-20T12:00:33;13.90;99.90
7461;DHT22;6757;52.258;12.840;2022-09-20T12:03:05;14.00;99.90
7461;DHT22;6757;52.258;12.840;2022-09-20T12:05:37;14.10;99.90
7461;DHT22;6757;52.258;12.840;2022-09-20T12:08:07;14.10;99.90
7461;DHT22;6757;52.258;12.840;2022-09-20T12:10:54;14.30;99.90
7461;DHT22;6757;52.258;12.840;2022-09-20T12:13:24;14.40;99.90
7461;DHT22;6757;52.258;12.840;2022-09-20T12:15:58;14.40;99.90
7461;DHT22;6757;52.258;12.840;2022-09-20T12:18:45;14.50;99.90
7461;DHT22;6757;52.258;12.840;2022-09-20T12:21:16;14.60;99.90
7461;DHT22;6757;52.258;12.840;2022-09-20T12:26:38;14.60;99.90
7461;DHT22;6757;52.258;12.840;2022-09-20T12:32:46;15.00;99.90
7461;DHT22;6757;52.258;12.840;2022-09-20T12:38:32;15.50;99.90
7461;DHT22;6757;52.258;12.840;2022-09-20T12:41:05;15.60;99.90
7461;DHT22;6757;52.258;12.840;2022-09-20T12:43:38;17.00;99.90
7461;DHT22;6757;52.258;12.840;2022-09-20T12:46:20;15.80;99.90
7461;DHT22;6757;52.258;12.840;2022-09-20T12:52:28;15.80;99.90
7461;DHT22;6757;52.258;12.840;2022-09-20T12:55:51;15.80;99.90
7461;DHT22;6757;52.258;12.840;2022-09-20T12:58:37;15.80;99.90
7461;DHT22;6757;52.258;12.840;2022-09-20T13:01:33;15.80;99.90
7461;DHT22;6757;52.258;12.840;2022-09-20T13:07:39;16.30;99.90
7461;DHT22;6757;52.258;12.840;2022-09-20T13:10:24;16.90;99.90
7461;DHT22;6757;52.258;12.840;2022-09-20T13:12:58;17.30;99.90
7461;DHT22;6757;52.258;12.840;2022-09-20T13:15:27;17.70;99.90
7461;DHT22;6757;52.258;12.840;2022-09-20T13:18:00;18.10;99.90
7461;DHT22;6757;52.258;12.840;2022-09-20T13:20:28;18.60;99.90
7461;DHT22;6757;52.258;12.840;2022-09-20T13:23:01;19.20;99.90
7461;DHT22;6757;52.258;12.840;2022-09-20T13:25:30;19.90;99.90
7461;DHT22;6757;52.258;12.840;2022-09-20T13:28:05;20.50;99.90
7461;DHT22;6757;52.258;12.840;2022-09-20T13:30:34;21.20;99.90
7461;DHT22;6757;52.258;12.840;2022-09-20T13:33:20;21.60;99.90
7461;DHT22;6757;52.258;12.840;2022-09-20T13:35:50;21.80;99.90
7461;DHT22;6757;52.258;12.840;2022-09-20T13:38:21;22.00;99.90
7461;DHT22;6757;52.258;12.840;2022-09-20T13:40:50;22.10;99.90
7461;DHT22;6757;52.258;12.840;2022-09-20T13:43:24;22.00;99.70
7461;DHT22;6757;52.258;12.840;2022-09-20T13:45:56;21.50;98.00
7461;DHT22;6757;52.258;12.840;2022-09-20T13:48:24;21.30;97.70
7461;DHT22;6757;52.258;12.840;2022-09-20T13:50:52;20.00;97.80
7461;DHT22;6757;52.258;12.840;2022-09-20T13:53:22;19.30;98.60
7461;DHT22;6757;52.258;12.840;2022-09-20T13:55:50;18.50;99.60
7461;DHT22;6757;52.258;12.840;2022-09-20T13:58:21;17.90;99.90
7461;DHT22;6757;52.258;12.840;2022-09-20T14:00:50;17.20;99.90
7461;DHT22;6757;52.258;12.840;2022-09-20T14:03:20;16.60;99.90
7461;DHT22;6757;52.258;12.840;2022-09-20T14:05:49;16.10;99.90
7461;DHT22;6757;52.258;12.840;2022-09-20T14:08:23;15.60;99.90
7461;DHT22;6757;52.258;12.840;2022-09-20T14:11:03;15.10;99.90
7461;DHT22;6757;52.258;12.840;2022-09-20T14:13:35;14.70;99.90
7461;DHT22;6757;52.258;12.840;2022-09-20T14:16:04;14.50;99.90
7461;DHT22;6757;52.258;12.840;2022-09-20T14:18:32;14.30;99.90
7461;DHT22;6757;52.258;12.840;2022-09-20T14:21:00;14.10;99.90
7461;DHT22;6757;52.258;12.840;2022-09-20T14:23:29;13.90;99.90
7461;DHT22;6757;52.258;12.840;2022-09-20T14:26:07;13.80;99.90
7461;DHT22;6757;52.258;12.840;2022-09-20T14:28:43;13.70;99.90
7461;DHT22;6757;52.258;12.840;2022-09-20T14:31:13;13.60;99.90
7461;DHT22;6757;52.258;12.840;2022-09-20T14:33:44;13.60;99.90
7461;DHT22;6757;52.258;12.840;2022-09-20T14:36:13;13.60;99.90
7461;DHT22;6757;52.258;12.840;2022-09-20T14:38:44;13.50;99.90
7461;DHT22;6757;52.258;12.840;2022-09-20T14:41:12;13.40;99.90
7461;DHT22;6757;52.258;12.840;2022-09-20T14:43:40;13.40;99.90
7461;DHT22;6757;52.258;12.840;2022-09-20T14:46:15;13.40;99.90
7461;DHT22;6757;52.258;12.840;2022-09-20T14:48:42;13.40;99.90
7461;DHT22;6757;52.258;12.840;2022-09-20T14:51:22;13.30;99.90
7461;DHT22;6757;52.258;12.840;2022-09-20T14:53:52;13.30;99.90
7461;DHT22;6757;52.258;12.840;2022-09-20T14:56:50;13.30;99.90
7461;DHT22;6757;52.258;12.840;2022-09-20T14:59:23;13.10;99.90
7461;DHT22;6757;52.258;12.840;2022-09-20T15:01:57;13.10;99.90
7461;DHT22;6757;52.258;12.840;2022-09-20T15:04:28;13.00;99.90
7461;DHT22;6757;52.258;12.840;2022-09-20T15:07:00;13.00;99.90
7461;DHT22;6757;52.258;12.840;2022-09-20T15:09:29;12.90;99.90
7461;DHT22;6757;52.258;12.840;2022-09-20T15:12:03;12.80;99.90
7461;DHT22;6757;52.258;12.840;2022-09-20T15:14:31;12.70;99.90
7461;DHT22;6757;52.258;12.840;2022-09-20T15:16:58;12.70;99.90
7461;DHT22;6757;52.258;12.840;2022-09-20T15:19:26;12.60;99.90
7461;DHT22;6757;52.258;12.840;2022-09-20T15:21:52;12.60;99.90
7461;DHT22;6757;52.258;12.840;2022-09-20T15:24:19;12.60;99.90
7461;DHT22;6757;52.258;12.840;2022-09-20T15:26:47;12.50;99.90
7461;DHT22;6757;52.258;12.840;2022-09-20T15:29:15;12.50;99.90
7461;DHT22;6757;52.258;12.840;2022-09-20T15:31:45;12.60;99.90
7461;DHT22;6757;52.258;12.840;2022-09-20T15:34:13;12.60;99.90
7461;DHT22;6757;52.258;12.840;2022-09-20T15:36:41;12.60;99.90
7461;DHT22;6757;52.258;12.840;2022-09-20T15:39:08;12.60;99.90
7461;DHT22;6757;52.258;12.840;2022-09-20T15:41:35;12.70;99.90
7461;DHT22;6757;52.258;12.840;2022-09-20T15:44:04;12.70;99.90
7461;DHT22;6757;52.258;12.840;2022-09-20T15:46:31;12.80;99.90
7461;DHT22;6757;52.258;12.840;2022-09-20T15:49:00;12.80;99.90
7461;DHT22;6757;52.258;12.840;2022-09-20T15:51:31;12.90;99.90
7461;DHT22;6757;52.258;12.840;2022-09-20T15:54:00;12.90;99.90
7461;DHT22;6757;52.258;12.840;2022-09-20T15:56:29;12.90;99.90
7461;DHT22;6757;52.258;12.840;2022-09-20T15:58:58;12.90;99.90
7461;DHT22;6757;52.258;12.840;2022-09-20T16:01:29;12.80;99.90
7461;DHT22;6757;52.258;12.840;2022-09-20T16:03:57;12.80;99.90
7461;DHT22;6757;52.258;12.840;2022-09-20T16:06:25;12.80;99.90
7461;DHT22;6757;52.258;12.840;2022-09-20T16:08:52;12.80;99.90
7461;DHT22;6757;52.258;12.840;2022-09-20T16:11:21;12.70;99.90
7461;DHT22;6757;52.258;12.840;2022-09-20T16:13:51;12.70;99.90
7461;DHT22;6757;52.258;12.840;2022-09-20T16:16:19;12.70;99.90
7461;DHT22;6757;52.258;12.840;2022-09-20T16:18:47;12.70;99.90
7461;DHT22;6757;52.258;12.840;2022-09-20T16:21:32;12.70;99.90
7461;DHT22;6757;52.258;12.840;2022-09-20T16:24:00;12.70;99.90
7461;DHT22;6757;52.258;12.840;2022-09-20T16:26:27;12.60;99.90
7461;DHT22;6757;52.258;12.840;2022-09-20T16:28:55;12.60;99.90
7461;DHT22;6757;52.258;12.840;2022-09-20T16:31:34;12.50;99.90
7461;DHT22;6757;52.258;12.840;2022-09-20T16:34:08;12.50;99.90
7461;DHT22;6757;52.258;12.840;2022-09-20T16:36:38;12.40;99.90
7461;DHT22;6757;52.258;12.840;2022-09-20T16:39:07;12.40;99.90
7461;DHT22;6757;52.258;12.840;2022-09-20T16:41:34;12.50;99.90
7461;DHT22;6757;52.258;12.840;2022-09-20T16:44:01;12.40;99.90
7461;DHT22;6757;52.258;12.840;2022-09-20T16:46:29;12.30;99.90
7461;DHT22;6757;52.258;12.840;2022-09-20T16:48:57;12.30;99.90
7461;DHT22;6757;52.258;12.840;2022-09-20T16:51:29;12.20;99.90
7461;DHT22;6757;52.258;12.840;2022-09-20T16:53:59;12.00;99.90
7461;DHT22;6757;52.258;12.840;2022-09-20T16:56:29;12.00;99.90
7461;DHT22;6757;52.258;12.840;2022-09-20T16:58:58;11.90;99.90
7461;DHT22;6757;52.258;12.840;2022-09-20T17:01:26;11.80;99.90
7461;DHT22;6757;52.258;12.840;2022-09-20T17:03:54;11.70;99.90
7461;DHT22;6757;52.258;12.840;2022-09-20T17:06:21;11.60;99.90
7461;DHT22;6757;52.258;12.840;2022-09-20T17:08:52;11.50;99.90
7461;DHT22;6757;52.258;12.840;2022-09-20T17:11:21;11.40;99.90
7461;DHT22;6757;52.258;12.840;2022-09-20T17:13:50;11.30;99.90
7461;DHT22;6757;52.258;12.840;2022-09-20T17:16:20;11.10;99.90
7461;DHT22;6757;52.258;12.840;2022-09-20T17:18:51;11.10;99.90
7461;DHT22;6757;52.258;12.840;2022-09-20T17:21:20;11.00;99.90
7461;DHT22;6757;52.258;12.840;2022-09-20T17:23:49;10.80;99.90
7461;DHT22;6757;52.258;12.840;2022-09-20T17:26:23;10.70;99.90
7461;DHT22;6757;52.258;12.840;2022-09-20T17:28:51;10.60;99.90
7461;DHT22;6757;52.258;12.840;2022-09-20T17:31:22;10.40;99.90
7461;DHT22;6757;52.258;12.840;2022-09-20T17:33:53;10.40;99.90
7461;DHT22;6757;52.258;12.840;2022-09-20T17:36:25;10.30;99.90
7461;DHT22;6757;52.258;12.840;2022-09-20T17:38:54;10.20;99.90
7461;DHT22;6757;52.258;12.840;2022-09-20T17:41:24;10.10;99.90